Time;durP1;ratioP1;P1;durP2;ratioP2;P2;SDS_P1;SDS_P2;PMS_P1;PMS_P2;Temp;Humidity;BMP_temperature;BMP_pressure;BME280_temperature;BME280_humidity;BME280_pressure;Samples;Min_cycle;Max_cycle;Signal;HPM_P1;HPM_P2
2023/01/29 00:00:10;;;;;;;6.03;5.17;;;;;;;2.16;70.43;99851.72;5078939;27;102612;-67
2023/01/29 00:02:41;;;;;;;6.03;4.17;;;;;;;2.02;71.70;99848.53;5073835;27;103612;-67
2023/01/29 00:05:12;;;;;;;4.93;4.43;;;;;;;2.24;71.62;99852.44;5077710;27;103444;-67
2023/01/29 00:07:55;;;;;;;4.57;4.17;;;;;;;2.41;71.65;99852.06;5075516;27;103166;-67
2023/01/29 00:10:24;;;;;;;6.00;5.07;;;;;;;2.31;71.71;99847.03;5078571;27;103845;-67
2023/01/29 00:12:52;;;;;;;6.83;4.77;;;;;;;2.37;71.38;99851.28;5072064;27;103667;-67
2023/01/29 00:15:20;;;;;;;5.83;5.23;;;;;;;2.37;71.65;99843.44;5068324;27;103403;-69
2023/01/29 00:17:49;;;;;;;4.77;4.27;;;;;;;2.41;71.87;99854.69;5073288;27;103189;-67
2023/01/29 00:20:19;;;;;;;5.07;4.63;;;;;;;2.45;71.79;99843.28;5072533;27;102717;-67
2023/01/29 00:22:47;;;;;;;4.93;4.23;;;;;;;2.55;72.00;99844.81;5072470;27;103996;-67
2023/01/29 00:25:16;;;;;;;5.60;5.00;;;;;;;2.44;71.06;99846.78;5067612;27;103413;-67
2023/01/29 00:27:46;;;;;;;5.50;4.43;;;;;;;2.44;71.72;99852.00;5065429;27;103216;-67
2023/01/29 00:30:17;;;;;;;5.27;4.77;;;;;;;2.31;71.90;99859.22;5065927;27;102657;-67
2023/01/29 00:32:50;;;;;;;6.40;5.20;;;;;;;2.50;71.47;99860.53;5075733;27;102864;-67
2023/01/29 00:35:20;;;;;;;6.10;5.50;;;;;;;2.39;71.79;99849.47;5037888;27;104204;-67
2023/01/29 00:37:51;;;;;;;5.37;4.87;;;;;;;2.36;71.92;99844.31;5067631;27;103222;-67
2023/01/29 00:40:19;;;;;;;7.53;5.10;;;;;;;2.40;72.16;99832.94;5049883;27;102777;-67
2023/01/29 00:45:32;;;;;;;6.10;4.77;;;;;;;2.60;71.18;99849.03;5062577;27;104001;-67
2023/01/29 00:48:00;;;;;;;6.90;6.13;;;;;;;2.51;70.78;99843.13;5048506;27;103229;-67
2023/01/29 00:50:30;;;;;;;5.90;5.20;;;;;;;2.29;71.34;99848.84;5066974;27;103188;-67
2023/01/29 00:52:58;;;;;;;5.23;4.73;;;;;;;2.37;71.82;99851.28;5058668;27;102854;-66
2023/01/29 00:55:26;;;;;;;5.30;4.83;;;;;;;2.31;71.30;99847.03;5065487;27;103672;-67
2023/01/29 00:57:54;;;;;;;6.27;5.67;;;;;;;2.13;71.69;99849.19;5072216;27;103244;-67
2023/01/29 01:00:24;;;;;;;6.90;5.67;;;;;;;1.82;72.00;99854.13;5064456;27;102791;-67
2023/01/29 01:03:06;;;;;;;5.87;5.27;;;;;;;1.71;72.99;99849.09;5057622;27;104018;-67
2023/01/29 01:05:37;;;;;;;6.13;4.60;;;;;;;2.12;72.53;99852.66;5050403;27;103250;-67
2023/01/29 01:10:19;;;;;;;5.50;5.00;;;;;;;2.06;71.85;99850.19;5033815;27;103206;-67
2023/01/29 01:10:58;;;;;;;6.43;5.13;;;;;;;1.89;71.74;99847.03;5051629;27;103829;-67
2023/01/29 01:13:26;;;;;;;5.90;5.10;;;;;;;1.82;72.76;99840.25;5052199;27;103616;-67
2023/01/29 01:15:54;;;;;;;6.70;5.57;;;;;;;1.60;73.19;99843.22;5048235;27;105138;-67
2023/01/29 01:18:23;;;;;;;8.33;5.87;;;;;;;1.67;73.34;99850.06;5054207;27;103203;-66
2023/01/29 01:20:57;;;;;;;6.57;5.63;;;;;;;1.90;72.46;99843.56;5034333;27;102865;-67
2023/01/29 01:23:26;;;;;;;7.17;5.00;;;;;;;2.14;72.19;99843.06;5036564;27;103743;-67
2023/01/29 01:25:54;;;;;;;4.97;4.30;;;;;;;2.33;72.28;99831.34;5054019;27;104118;-67
2023/01/29 01:28:22;;;;;;;5.93;5.17;;;;;;;2.26;71.88;99842.81;5042323;27;103397;-67
2023/01/29 01:30:50;;;;;;;4.80;3.97;;;;;;;2.36;71.61;99839.09;5059074;27;102635;-67
2023/01/29 01:33:19;;;;;;;9.70;7.87;;;;;;;2.16;71.13;99843.91;5038968;27;102900;-66
2023/01/29 01:35:47;;;;;;;8.97;7.77;;;;;;;2.27;70.82;99839.31;5052002;27;103169;-67
2023/01/29 01:38:16;;;;;;;8.47;7.07;;;;;;;1.90;70.79;99848.78;5054789;27;103170;-67
2023/01/29 01:40:45;;;;;;;9.10;8.30;;;;;;;2.00;71.99;99850.28;5063049;27;102748;-67
2023/01/29 01:43:15;;;;;;;8.47;7.53;;;;;;;2.23;71.59;99841.13;5037347;27;104362;-66
2023/01/29 01:45:45;;;;;;;7.33;6.10;;;;;;;2.15;71.03;99843.03;5058334;27;104163;-67
2023/01/29 01:48:19;;;;;;;7.53;6.43;;;;;;;2.16;70.70;99836.09;5058663;27;103186;-67
2023/01/29 01:50:53;;;;;;;6.33;5.40;;;;;;;2.12;71.72;99834.41;5039155;27;102821;-67
2023/01/29 01:53:26;;;;;;;7.90;6.30;;;;;;;2.12;71.34;99839.63;5055567;27;104375;-67
2023/01/29 01:55:58;;;;;;;6.90;5.63;;;;;;;1.88;71.25;99840.13;5035777;27;103364;-67
2023/01/29 01:58:31;;;;;;;5.93;5.17;;;;;;;1.75;72.53;99832.53;5042977;27;103191;-67
2023/01/29 02:01:00;;;;;;;6.17;5.27;;;;;;;1.90;71.95;99836.59;5042118;27;102990;-67
2023/01/29 02:11:55;;;;;;;6.13;5.53;;;;;;;2.10;72.37;99841.41;5040280;27;102804;-67
2023/01/29 02:14:24;;;;;;;6.07;5.20;;;;;;;1.72;72.43;99845.63;5056724;27;103593;-66
2023/01/29 02:16:52;;;;;;;6.60;5.73;;;;;;;1.48;73.88;99847.81;5054105;27;103927;-67
2023/01/29 02:19:28;;;;;;;6.07;4.97;;;;;;;1.93;72.83;99846.97;5038514;27;104209;-67
2023/01/29 02:22:15;;;;;;;5.73;5.00;;;;;;;1.90;71.33;99839.22;5037026;27;102717;-67
2023/01/29 02:25:09;;;;;;;5.80;5.20;;;;;;;1.75;71.79;99845.56;5038135;27;103606;-66
2023/01/29 02:28:06;;;;;;;5.53;4.70;;;;;;;1.91;72.11;99840.91;5035575;27;104066;-67
2023/01/29 02:30:38;;;;;;;6.23;5.63;;;;;;;2.04;71.69;99842.41;5032624;27;103186;-68
2023/01/29 02:33:20;;;;;;;5.87;5.03;;;;;;;2.07;70.94;99846.69;5049213;27;102774;-67
2023/01/29 02:35:59;;;;;;;5.00;4.47;;;;;;;2.15;71.66;99845.66;5036511;27;102721;-66
2023/01/29 02:38:34;;;;;;;6.23;5.10;;;;;;;2.14;70.35;99846.53;5058133;27;104161;-67
2023/01/29 02:41:06;;;;;;;5.50;5.00;;;;;;;2.11;71.07;99840.50;5038401;27;105192;-67
2023/01/29 02:43:46;;;;;;;4.37;3.97;;;;;;;2.21;70.94;99847.28;5037578;27;103109;-67
2023/01/29 02:46:22;;;;;;;6.23;4.60;;;;;;;2.19;70.10;99841.25;5059026;27;103880;-67
2023/01/29 02:48:57;;;;;;;5.47;3.90;;;;;;;2.30;71.29;99850.53;5034392;27;102957;-68
2023/01/29 02:51:34;;;;;;;5.90;5.20;;;;;;;2.23;70.88;99842.88;5034296;27;103256;-68
2023/01/29 02:54:07;;;;;;;5.60;4.50;;;;;;;2.33;70.67;99839.16;5035261;27;103719;-68
2023/01/29 02:56:39;;;;;;;5.70;5.10;;;;;;;2.01;68.72;99832.03;5053546;27;104003;-68
2023/01/29 02:59:14;;;;;;;5.47;4.60;;;;;;;2.12;69.04;99834.41;5032720;27;104449;-67
2023/01/29 03:01:48;;;;;;;5.40;4.43;;;;;;;2.17;69.85;99833.44;5042652;27;103114;-67
2023/01/29 03:04:22;;;;;;;4.47;4.07;;;;;;;2.08;70.35;99837.97;5036476;27;102818;-67
2023/01/29 03:06:57;;;;;;;6.87;5.30;;;;;;;2.08;70.27;99843.19;5036910;27;104736;-67
2023/01/29 03:09:30;;;;;;;5.33;4.40;;;;;;;2.12;70.29;99837.03;5050124;27;104104;-67
2023/01/29 03:12:17;;;;;;;6.37;4.30;;;;;;;2.17;70.81;99848.22;5031759;27;104337;-67
2023/01/29 03:17:42;;;;;;;5.90;4.90;;;;;;;2.26;70.71;99841.06;5032358;27;104078;-67
2023/01/29 03:20:15;;;;;;;6.07;4.90;;;;;;;2.26;70.74;99843.69;5049204;27;103250;-66
2023/01/29 03:22:50;;;;;;;6.50;5.40;;;;;;;2.02;69.89;99840.72;5054735;27;103277;-66
2023/01/29 03:33:51;;;;;;;6.23;5.40;;;;;;;1.57;71.54;99834.63;5032035;27;104206;-66
2023/01/29 03:36:22;;;;;;;5.37;4.87;;;;;;;1.79;71.84;99840.31;5036301;27;102985;-66
2023/01/29 03:38:50;;;;;;;6.20;5.07;;;;;;;1.97;71.35;99834.72;5036658;27;104275;-66
2023/01/29 03:41:28;;;;;;;6.43;4.93;;;;;;;2.00;71.11;99834.66;5031375;27;103218;-66
2023/01/29 03:44:09;;;;;;;5.87;4.90;;;;;;;1.92;70.89;99836.56;5030485;27;104358;-66
2023/01/29 03:46:46;;;;;;;6.43;5.50;;;;;;;1.70;71.26;99830.91;5035876;27;102677;-66
2023/01/29 03:49:23;;;;;;;6.60;5.63;;;;;;;1.84;71.28;99830.63;5031614;27;102789;-66
2023/01/29 03:51:58;;;;;;;6.20;5.60;;;;;;;1.80;70.81;99835.03;5037356;27;103639;-66
2023/01/29 03:54:40;;;;;;;6.00;5.40;;;;;;;1.66;70.99;99830.09;5056378;27;103231;-66
2023/01/29 03:57:16;;;;;;;6.27;5.50;;;;;;;1.42;71.74;99838.38;5038482;27;102702;-66
2023/01/29 03:59:53;;;;;;;6.83;5.17;;;;;;;0.95;73.80;99838.31;5035189;27;103742;-65
2023/01/29 04:02:49;;;;;;;5.90;5.37;;;;;;;1.28;73.43;99826.47;5055687;27;104127;-66
2023/01/29 04:05:20;;;;;;;5.60;4.93;;;;;;;1.06;73.99;99831.19;5032653;27;103476;-67
2023/01/29 04:08:08;;;;;;;8.40;5.40;;;;;;;1.41;74.06;99838.38;5039048;27;102643;-66
2023/01/29 04:10:39;;;;;;;6.77;5.23;;;;;;;1.70;72.90;99841.31;5035016;27;103837;-66
2023/01/29 04:13:11;;;;;;;5.73;4.87;;;;;;;1.77;72.26;99840.31;5053020;27;103304;-66
2023/01/29 04:15:46;;;;;;;6.17;5.57;;;;;;;1.61;72.28;99844.97;5034430;27;103679;-66
2023/01/29 04:18:15;;;;;;;6.00;4.60;;;;;;;1.72;72.45;99844.75;5049625;27;102703;-66
2023/01/29 04:21:06;;;;;;;6.33;5.73;;;;;;;1.58;72.13;99847.63;5036314;27;102810;-66
2023/01/29 04:23:34;;;;;;;6.77;5.80;;;;;;;1.53;71.54;99846.84;5038859;27;103328;-66
2023/01/29 04:26:20;;;;;;;5.73;5.23;;;;;;;1.45;71.10;99846.13;5037903;27;105585;-67
2023/01/29 04:29:02;;;;;;;6.27;5.67;;;;;;;1.16;72.33;99843.16;5030246;27;102969;-66
2023/01/29 04:31:37;;;;;;;5.13;4.63;;;;;;;1.27;72.88;99842.97;5030258;27;102765;-66
2023/01/29 04:34:19;;;;;;;5.73;5.13;;;;;;;1.45;71.97;99850.47;5028199;27;104490;-65
2023/01/29 04:37:01;;;;;;;7.67;5.80;;;;;;;1.62;71.30;99846.69;5034092;27;103177;-66
2023/01/29 04:39:36;;;;;;;5.67;4.70;;;;;;;1.75;71.66;99844.69;5034461;27;102764;-67
2023/01/29 04:42:12;;;;;;;7.10;5.03;;;;;;;1.77;72.28;99844.69;5058992;27;102854;-67
2023/01/29 04:44:48;;;;;;;6.10;5.43;;;;;;;1.77;71.78;99838.56;5058191;27;103847;-67
2023/01/29 04:47:24;;;;;;;6.90;5.30;;;;;;;1.59;71.60;99849.34;5054090;27;103211;-66
2023/01/29 04:50:08;;;;;;;6.80;5.10;;;;;;;1.42;70.33;99840.97;5053645;27;102697;-66
2023/01/29 04:52:47;;;;;;;6.47;4.80;;;;;;;1.33;72.32;99842.88;5053194;27;103050;-67
2023/01/29 04:55:25;;;;;;;6.03;5.10;;;;;;;1.18;73.04;99841.38;5052025;27;104102;-66
2023/01/29 04:58:00;;;;;;;6.23;5.63;;;;;;;0.83;73.97;99835.88;5035112;27;103203;-66
2023/01/29 05:00:33;;;;;;;6.37;5.30;;;;;;;0.47;75.46;99851.16;5050217;27;102745;-66
2023/01/29 05:03:02;;;;;;;6.43;5.83;;;;;;;0.41;76.02;99856.44;5035662;27;104086;-66
2023/01/29 05:05:32;;;;;;;6.07;5.47;;;;;;;0.47;76.04;99851.16;5058022;27;103598;-68
2023/01/29 05:08:00;;;;;;;6.77;5.37;;;;;;;0.44;75.91;99850.31;5053584;27;103216;-66
2023/01/29 05:10:29;;;;;;;6.07;5.47;;;;;;;0.53;75.13;99845.84;5050809;27;102628;-66
2023/01/29 05:13:01;;;;;;;6.93;5.67;;;;;;;0.66;75.00;99840.47;5052173;27;102964;-67
2023/01/29 05:15:37;;;;;;;6.73;6.00;;;;;;;0.62;74.59;99841.41;5052976;27;103246;-66
2023/01/29 05:18:07;;;;;;;6.57;5.37;;;;;;;1.05;73.76;99837.25;5033375;27;103196;-66
2023/01/29 05:20:39;;;;;;;5.87;4.80;;;;;;;1.38;73.01;99839.28;5051900;27;102656;-66
2023/01/29 05:23:10;;;;;;;5.27;4.63;;;;;;;1.57;72.78;99840.69;5053451;27;103083;-66
2023/01/29 05:25:38;;;;;;;6.30;5.23;;;;;;;1.56;72.18;99848.53;5046334;27;103195;-66
2023/01/29 05:28:07;;;;;;;5.53;4.67;;;;;;;1.56;71.87;99849.41;5036475;27;103245;-66
2023/01/29 05:30:36;;;;;;;5.47;4.97;;;;;;;1.48;71.45;99851.28;5060031;27;102601;-66
2023/01/29 05:33:11;;;;;;;5.53;4.83;;;;;;;1.49;71.28;99853.00;5059589;27;102733;-66
2023/01/29 05:35:40;;;;;;;6.20;5.50;;;;;;;1.02;72.92;99850.31;5057783;27;103852;-66
2023/01/29 05:38:08;;;;;;;5.47;4.97;;;;;;;0.97;73.17;99852.16;5055565;27;103707;-66
2023/01/29 05:40:36;;;;;;;5.10;4.60;;;;;;;1.26;72.63;99838.66;5056602;27;102734;-66
2023/01/29 05:43:05;;;;;;;5.13;4.57;;;;;;;1.52;71.52;99839.91;5058137;27;103909;-66
2023/01/29 05:45:33;;;;;;;6.43;5.53;;;;;;;1.66;71.02;99839.66;5057559;27;103255;-66
2023/01/29 05:48:01;;;;;;;5.00;4.50;;;;;;;1.70;71.09;99825.69;5058719;27;103206;-66
2023/01/29 05:50:29;;;;;;;6.67;5.33;;;;;;;1.77;70.99;99810.81;5056936;27;102938;-66
2023/01/29 05:53:00;;;;;;;5.17;4.67;;;;;;;1.75;71.10;99803.88;5054592;27;102986;-66
2023/01/29 05:55:29;;;;;;;5.97;4.67;;;;;;;1.61;71.11;99795.47;5052289;27;104022;-66
2023/01/29 05:57:57;;;;;;;6.77;6.03;;;;;;;1.40;71.79;99795.00;5060109;27;103241;-66
2023/01/29 06:00:25;;;;;;;7.90;5.57;;;;;;;1.49;71.86;99800.91;5058069;27;102849;-66
2023/01/29 06:02:53;;;;;;;6.00;4.90;;;;;;;1.53;71.55;99807.78;5061026;27;102686;-66
2023/01/29 06:05:20;;;;;;;5.40;4.90;;;;;;;1.51;71.37;99813.91;5055112;27;103472;-66
2023/01/29 06:07:48;;;;;;;5.87;5.30;;;;;;;1.30;71.15;99820.34;5042893;27;104284;-66
2023/01/29 06:10:18;;;;;;;5.07;4.57;;;;;;;1.52;71.51;99818.22;5056951;27;103004;-66
2023/01/29 06:12:47;;;;;;;4.90;4.33;;;;;;;1.58;72.04;99811.16;5057944;27;103979;-67
2023/01/29 06:15:15;;;;;;;6.53;5.60;;;;;;;1.70;71.33;99818.75;5038115;27;104080;-66
2023/01/29 06:17:43;;;;;;;8.57;5.40;;;;;;;1.54;71.60;99835.56;5021939;27;103966;-66
2023/01/29 06:20:12;;;;;;;6.63;5.60;;;;;;;1.57;71.33;99825.03;5049845;27;103224;-66
2023/01/29 06:22:39;;;;;;;6.70;5.17;;;;;;;1.55;71.90;99819.03;5039902;27;102631;-66
2023/01/29 06:25:08;;;;;;;6.40;5.60;;;;;;;1.54;71.74;99825.13;5005704;27;104217;-66
2023/01/29 06:27:38;;;;;;;6.43;5.70;;;;;;;1.27;71.99;99828.22;4994822;28;103204;-66
2023/01/29 06:30:06;;;;;;;5.67;4.37;;;;;;;1.51;71.63;99825.19;4996683;28;103134;-66
2023/01/29 06:32:34;;;;;;;5.73;5.13;;;;;;;1.60;71.94;99835.41;4988371;28;104054;-66
2023/01/29 06:35:03;;;;;;;6.30;5.70;;;;;;;1.55;72.14;99833.78;4993441;28;103150;-66
2023/01/29 06:37:30;;;;;;;7.00;5.80;;;;;;;1.50;71.57;99830.41;4994887;28;103180;-66
2023/01/29 06:39:58;;;;;;;7.10;5.00;;;;;;;1.47;71.97;99833.06;4996260;28;105388;-66
2023/01/29 06:42:26;;;;;;;6.70;5.93;;;;;;;1.52;71.93;99826.03;4993955;28;103391;-66
2023/01/29 06:44:56;;;;;;;6.90;5.13;;;;;;;1.23;72.49;99826.56;4994358;28;103984;-66
2023/01/29 06:47:24;;;;;;;8.13;6.60;;;;;;;1.39;71.67;99829.75;4995864;28;103850;-66
2023/01/29 06:49:52;;;;;;;5.87;5.20;;;;;;;1.48;72.33;99827.84;4997723;28;102718;-66
2023/01/29 06:52:20;;;;;;;5.97;5.37;;;;;;;1.62;72.28;99828.47;4992046;28;102840;-66
2023/01/29 06:54:51;;;;;;;5.73;4.83;;;;;;;1.51;71.74;99834.75;4992242;28;103933;-66
2023/01/29 06:57:19;;;;;;;6.40;5.80;;;;;;;1.21;71.50;99836.13;4993546;28;103184;-66
2023/01/29 06:59:47;;;;;;;9.13;6.30;;;;;;;0.99;72.35;99840.81;4990580;28;102756;-67
2023/01/29 07:02:16;;;;;;;7.30;6.30;;;;;;;0.80;73.05;99846.34;4990135;28;103530;-67
2023/01/29 07:04:44;;;;;;;6.60;6.00;;;;;;;0.83;73.54;99843.69;4994716;28;103239;-66
2023/01/29 07:07:14;;;;;;;5.57;4.97;;;;;;;1.02;73.61;99834.72;4993021;28;103164;-66
2023/01/29 07:09:43;;;;;;;6.80;5.60;;;;;;;1.38;72.97;99844.50;5011917;27;102765;-67
2023/01/29 07:12:11;;;;;;;6.63;5.93;;;;;;;1.54;72.62;99835.56;4991521;28;103638;-67
2023/01/29 07:14:39;;;;;;;6.50;5.90;;;;;;;1.51;72.57;99834.75;4990060;28;103677;-66
2023/01/29 07:17:06;;;;;;;7.37;6.57;;;;;;;1.56;72.55;99833.78;4993356;28;103082;-66
2023/01/29 07:19:36;;;;;;;7.00;6.23;;;;;;;1.62;72.99;99848.44;4994018;28;103441;-66
2023/01/29 07:22:06;;;;;;;7.10;5.60;;;;;;;1.71;71.69;99856.91;4989290;28;104033;-67
2023/01/29 07:24:34;;;;;;;7.30;5.77;;;;;;;1.73;71.45;99842.13;4988286;28;104451;-61
2023/01/29 07:27:03;;;;;;;8.23;6.57;;;;;;;1.67;70.90;99852.66;4990595;28;103224;-66
2023/01/29 07:29:31;;;;;;;7.17;5.33;;;;;;;1.81;71.12;99855.00;4990068;28;102787;-67
2023/01/29 07:32:00;;;;;;;6.37;5.30;;;;;;;1.93;70.32;99853.94;4978036;28;103014;-65
2023/01/29 07:34:28;;;;;;;8.73;5.83;;;;;;;1.30;70.40;99864.59;4989046;28;104202;-64
2023/01/29 07:36:58;;;;;;;7.67;6.33;;;;;;;1.18;71.12;99863.06;4987067;28;103237;-64
2023/01/29 07:39:26;;;;;;;6.77;6.17;;;;;;;1.53;71.16;99862.47;4988818;28;102970;-64
2023/01/29 07:41:57;;;;;;;7.10;6.00;;;;;;;1.53;70.55;99867.69;4990817;28;102950;-64
2023/01/29 07:44:37;;;;;;;6.43;5.73;;;;;;;1.14;70.06;99865.75;4991388;28;103610;-66
2023/01/29 07:47:05;;;;;;;8.83;6.10;;;;;;;1.14;71.14;99873.56;4990275;28;103217;-66
2023/01/29 07:49:33;;;;;;;6.63;5.90;;;;;;;1.16;72.26;99874.38;4993772;28;102667;-66
2023/01/29 07:52:03;;;;;;;7.10;5.60;;;;;;;1.29;71.65;99867.25;4992310;28;102706;-66
2023/01/29 07:54:31;;;;;;;7.40;5.67;;;;;;;1.30;71.71;99877.63;4993691;28;103645;-64
2023/01/29 07:56:59;;;;;;;6.63;5.70;;;;;;;1.13;70.24;99882.25;4994160;28;103196;-66
2023/01/29 07:59:27;;;;;;;7.40;6.03;;;;;;;1.49;71.50;99883.38;4994872;28;103048;-66
2023/01/29 08:01:54;;;;;;;6.07;5.10;;;;;;;1.60;71.06;99881.47;4994469;28;102804;-62
2023/01/29 08:04:22;;;;;;;6.60;5.40;;;;;;;1.74;70.88;99880.31;4997427;28;103365;-62
2023/01/29 08:06:50;;;;;;;6.23;5.50;;;;;;;1.89;71.17;99879.19;4996028;28;103206;-63
2023/01/29 08:09:19;;;;;;;6.90;6.17;;;;;;;1.48;70.92;99882.53;4994640;28;102723;-62
2023/01/29 08:11:47;;;;;;;6.00;5.40;;;;;;;1.39;70.85;99880.09;5000901;28;103032;-62
2023/01/29 08:14:15;;;;;;;6.43;5.70;;;;;;;1.65;69.98;99875.28;4999678;28;104228;-62
2023/01/29 08:16:43;;;;;;;8.40;6.23;;;;;;;1.65;69.26;99887.47;4998183;28;104426;-62
2023/01/29 08:19:11;;;;;;;8.30;6.00;;;;;;;1.21;70.63;99888.19;4999820;28;102714;-62
2023/01/29 08:21:39;;;;;;;7.27;6.50;;;;;;;1.03;72.59;99888.50;5000229;28;104103;-62
2023/01/29 08:24:07;;;;;;;9.57;6.63;;;;;;;0.95;72.80;99895.56;4999014;28;103639;-63
2023/01/29 08:26:36;;;;;;;7.00;6.20;;;;;;;1.20;71.69;99899.50;5002001;28;103192;-62
2023/01/29 08:29:04;;;;;;;8.13;6.17;;;;;;;1.57;71.13;99898.00;4998287;28;102597;-62
2023/01/29 08:31:32;;;;;;;6.37;5.77;;;;;;;1.59;70.58;99891.03;5001133;28;103904;-62
2023/01/29 08:34:00;;;;;;;7.13;6.13;;;;;;;1.58;70.70;99897.13;5001626;28;103308;-62
2023/01/29 08:36:28;;;;;;;6.90;6.23;;;;;;;1.16;71.22;99901.28;4999038;28;103225;-62
2023/01/29 08:38:56;;;;;;;7.93;6.40;;;;;;;0.92;73.05;99904.28;5001377;28;102725;-64
2023/01/29 08:41:24;;;;;;;7.70;6.70;;;;;;;0.86;73.13;99909.56;5001202;28;104533;-64
2023/01/29 08:43:53;;;;;;;7.13;6.33;;;;;;;0.72;73.53;99915.84;5000118;28;104596;-64
2023/01/29 08:46:21;;;;;;;6.73;6.10;;;;;;;0.85;73.69;99915.63;4994835;28;103125;-64
2023/01/29 08:48:49;;;;;;;8.20;6.37;;;;;;;0.91;73.75;99907.75;5002205;28;102630;-64
2023/01/29 08:51:17;;;;;;;7.50;6.63;;;;;;;1.04;73.02;99906.66;4997151;28;103587;-65
2023/01/29 08:53:45;;;;;;;6.67;6.07;;;;;;;1.21;72.58;99909.00;4999240;28;103972;-65
2023/01/29 08:56:15;;;;;;;6.93;6.30;;;;;;;1.20;72.09;99909.91;4992861;28;103175;-65
2023/01/29 08:58:43;;;;;;;6.63;5.77;;;;;;;1.19;72.14;99910.78;5000013;28;103105;-65
2023/01/29 09:01:14;;;;;;;8.20;6.13;;;;;;;1.19;71.40;99902.97;4997037;28;102745;-64
2023/01/29 09:03:43;;;;;;;6.87;6.27;;;;;;;1.23;71.14;99904.66;4998469;28;104251;-65
2023/01/29 09:06:13;;;;;;;6.23;5.30;;;;;;;1.71;70.13;99897.78;4997590;28;103200;-64
2023/01/29 09:08:41;;;;;;;6.17;5.57;;;;;;;2.17;69.91;99909.03;5000971;28;102538;-65
2023/01/29 09:11:09;;;;;;;8.37;5.47;;;;;;;1.99;69.23;99917.22;5000173;28;104386;-64
2023/01/29 09:13:37;;;;;;;7.07;5.30;;;;;;;2.22;69.12;99919.38;4998797;28;103583;-64
2023/01/29 09:16:10;;;;;;;6.67;5.80;;;;;;;2.13;67.83;99915.19;4998224;28;103237;-64
2023/01/29 09:18:39;;;;;;;8.13;7.00;;;;;;;2.23;66.94;99916.75;4996141;28;102695;-64
2023/01/29 09:21:07;;;;;;;6.97;6.20;;;;;;;2.23;67.74;99921.09;5000123;28;103661;-64
2023/01/29 09:23:35;;;;;;;8.37;5.87;;;;;;;2.03;67.27;99912.81;4997803;28;103211;-65
2023/01/29 09:26:03;;;;;;;7.20;5.67;;;;;;;1.85;68.44;99923.59;4999218;28;103057;-65
2023/01/29 09:28:31;;;;;;;6.77;6.07;;;;;;;1.76;68.13;99927.22;4999889;28;102731;-64
2023/01/29 09:31:01;;;;;;;7.20;6.37;;;;;;;1.84;69.08;99927.06;4997925;28;102743;-64
2023/01/29 09:33:29;;;;;;;6.67;5.73;;;;;;;1.99;68.49;99922.44;4997351;28;103589;-64
2023/01/29 09:35:59;;;;;;;6.37;5.53;;;;;;;2.05;68.20;99929.28;5000808;28;103251;-64
2023/01/29 09:38:27;;;;;;;7.47;5.87;;;;;;;2.04;69.05;99918.00;4995349;28;102660;-64
2023/01/29 09:41:04;;;;;;;7.53;6.73;;;;;;;2.47;66.60;99909.34;5000375;28;104010;-65
2023/01/29 09:43:42;;;;;;;8.00;5.80;;;;;;;2.90;65.14;99905.75;4996467;28;104525;-64
2023/01/29 09:46:18;;;;;;;7.23;5.57;;;;;;;3.09;64.44;99900.13;4999395;28;103253;-65
2023/01/29 09:48:48;;;;;;;5.53;4.70;;;;;;;3.38;65.47;99897.66;4996053;28;102690;-64
2023/01/29 09:51:27;;;;;;;6.97;5.17;;;;;;;3.30;63.47;99883.94;4997838;28;102708;-66
2023/01/29 09:54:03;;;;;;;9.90;6.03;;;;;;;2.78;63.67;99873.84;4995650;28;103791;-65
2023/01/29 09:56:31;;;;;;;7.83;6.67;;;;;;;3.20;64.87;99861.56;4986804;28;103301;-67
2023/01/29 09:58:59;;;;;;;6.87;5.30;;;;;;;3.53;64.19;99858.09;4990390;28;102689;-66
2023/01/29 10:01:36;;;;;;;6.50;5.90;;;;;;;3.55;63.29;99868.50;4993626;28;103143;-66
2023/01/29 10:04:27;;;;;;;7.27;5.90;;;;;;;3.83;61.87;99853.81;4999456;28;103324;-67
2023/01/29 10:07:15;;;;;;;8.50;5.93;;;;;;;3.89;62.05;99849.28;4998527;28;103255;-66
2023/01/29 10:10:06;;;;;;;7.40;6.70;;;;;;;3.65;61.01;99833.41;4993765;28;102641;-66
2023/01/29 10:12:50;;;;;;;8.20;5.97;;;;;;;4.24;60.89;99839.59;4993889;28;104093;-67
2023/01/29 10:15:32;;;;;;;7.57;6.60;;;;;;;4.19;60.88;99831.00;4997533;28;103181;-67
2023/01/29 10:18:19;;;;;;;7.07;6.37;;;;;;;3.39;61.80;99836.69;4995822;28;103206;-67
2023/01/29 10:20:58;;;;;;;6.57;5.80;;;;;;;3.66;62.30;99837.72;4994606;28;103133;-67
2023/01/29 10:23:31;;;;;;;6.43;5.70;;;;;;;3.88;61.31;99842.31;4992715;28;104493;-67
2023/01/29 10:26:02;;;;;;;7.17;6.43;;;;;;;3.89;62.02;99854.50;4996109;28;104131;-66
2023/01/29 10:28:38;;;;;;;7.63;6.83;;;;;;;3.46;61.87;99864.38;4992339;28;103217;-67
2023/01/29 10:31:09;;;;;;;7.37;6.67;;;;;;;3.96;61.34;99855.19;4993997;28;102616;-66
2023/01/29 10:33:41;;;;;;;6.93;6.23;;;;;;;3.66;60.97;99849.03;4988616;28;102747;-65
2023/01/29 10:36:34;;;;;;;7.40;6.30;;;;;;;2.76;62.85;99850.41;4999645;28;104305;-66
2023/01/29 10:39:03;;;;;;;7.77;6.97;;;;;;;2.43;64.47;99851.16;5000031;28;103697;-67
2023/01/29 10:41:50;;;;;;;7.60;6.73;;;;;;;2.75;66.62;99848.66;4997419;28;102681;-67
2023/01/29 10:44:31;;;;;;;9.53;7.40;;;;;;;3.31;63.83;99859.53;4998383;28;103801;-67
2023/01/29 10:47:29;;;;;;;8.23;6.77;;;;;;;2.93;63.49;99858.69;4998849;28;103225;-67
2023/01/29 10:50:18;;;;;;;7.87;7.10;;;;;;;3.67;63.03;99850.75;4994402;28;102973;-67
2023/01/29 10:53:12;;;;;;;8.07;7.23;;;;;;;3.42;64.38;99849.69;4993020;28;102751;-68
2023/01/29 10:55:52;;;;;;;10.30;7.77;;;;;;;4.02;63.59;99832.34;5000461;28;102977;-68
2023/01/29 10:58:30;;;;;;;7.63;6.93;;;;;;;3.99;62.25;99842.03;4993524;28;103236;-66
2023/01/29 11:00:59;;;;;;;7.00;6.30;;;;;;;3.30;64.84;99848.22;4996196;28;103283;-66
2023/01/29 11:03:28;;;;;;;8.37;7.13;;;;;;;3.71;61.97;99848.91;4997902;28;102850;-66
2023/01/29 11:06:08;;;;;;;8.83;7.13;;;;;;;3.28;63.86;99850.03;4995031;28;104024;-66
2023/01/29 11:08:40;;;;;;;8.30;7.47;;;;;;;3.53;62.75;99849.41;4996781;28;103791;-66
2023/01/29 11:11:14;;;;;;;8.07;7.13;;;;;;;3.42;63.65;99847.06;5000423;28;103742;-66
2023/01/29 11:13:48;;;;;;;8.37;7.27;;;;;;;2.79;64.03;99837.28;4997658;28;103177;-67
2023/01/29 11:16:18;;;;;;;10.17;7.30;;;;;;;2.32;64.77;99842.69;4997603;28;104070;-68
2023/01/29 11:18:52;;;;;;;8.97;7.73;;;;;;;3.07;64.97;99839.22;4998221;28;103252;-68
2023/01/29 11:21:20;;;;;;;8.57;7.67;;;;;;;3.37;63.76;99838.47;4995561;28;103077;-67
2023/01/29 11:23:48;;;;;;;8.07;7.27;;;;;;;3.15;66.12;99832.06;4997122;28;102631;-68
2023/01/29 11:26:21;;;;;;;11.53;7.83;;;;;;;3.35;63.88;99827.19;4989779;28;103582;-67
2023/01/29 11:28:51;;;;;;;8.47;7.57;;;;;;;3.43;64.53;99820.03;4994450;28;104179;-68
2023/01/29 11:31:22;;;;;;;9.43;8.23;;;;;;;3.45;65.12;99806.00;4995870;28;104162;-67
2023/01/29 11:33:53;;;;;;;9.60;8.20;;;;;;;2.56;65.49;99796.94;4994767;28;102751;-68
2023/01/29 11:36:31;;;;;;;15.37;11.27;;;;;;;2.93;66.78;99803.88;4996438;28;102629;-68
2023/01/29 11:39:20;;;;;;;11.20;8.17;;;;;;;3.49;64.93;99798.97;4990499;28;103271;-68
2023/01/29 11:41:53;;;;;;;8.37;7.43;;;;;;;4.03;63.63;99794.84;4999312;28;103070;-68
2023/01/29 11:44:27;;;;;;;8.03;6.97;;;;;;;4.31;63.69;99789.66;4996345;28;102607;-68
2023/01/29 11:46:57;;;;;;;8.37;7.43;;;;;;;4.02;62.37;99800.09;4999787;28;102693;-68
2023/01/29 11:49:32;;;;;;;9.57;7.40;;;;;;;4.22;61.91;99795.16;4994043;28;103246;-68
2023/01/29 11:52:03;;;;;;;10.63;8.00;;;;;;;4.03;62.85;99793.97;4998031;28;102972;-68
2023/01/29 11:54:36;;;;;;;9.30;7.57;;;;;;;3.40;63.75;99799.19;4998357;28;102615;-67
2023/01/29 11:57:19;;;;;;;10.37;7.40;;;;;;;3.82;63.87;99795.44;4998768;28;103629;-68
2023/01/29 11:59:50;;;;;;;8.10;6.70;;;;;;;4.06;62.93;99783.44;4997543;28;103286;-68
2023/01/29 12:02:26;;;;;;;8.80;7.20;;;;;;;3.98;61.15;99778.44;4997574;28;103163;-68
2023/01/29 12:04:57;;;;;;;7.90;5.83;;;;;;;4.28;61.74;99773.19;4993950;28;103112;-68
2023/01/29 12:07:26;;;;;;;8.77;7.00;;;;;;;4.51;62.18;99755.03;4987265;28;103021;-68
2023/01/29 12:09:56;;;;;;;10.30;7.37;;;;;;;4.39;61.10;99751.03;4989382;28;104875;-68
2023/01/29 12:12:31;;;;;;;10.17;8.13;;;;;;;4.71;58.64;99746.53;4990718;28;104335;-67
2023/01/29 12:15:23;;;;;;;9.77;7.07;;;;;;;4.67;59.83;99743.16;4987624;28;103142;-68
2023/01/29 12:18:03;;;;;;;9.17;7.03;;;;;;;4.84;58.96;99732.13;4976895;28;103491;-68
2023/01/29 12:20:39;;;;;;;9.67;7.23;;;;;;;4.63;57.97;99728.47;4991647;28;103239;-67